Hyalite Weather Station

This weather station provides temperature, wind speed, gust or max wind speed, and wind direction at 9982ft near the summit of Flanders Mountain. This data can be used with temperature and precipitation data from the Shower Falls SNOTEL site. If the data has not been updated recently you can view it directly on datagarrison.com

Elevation
9982ft
Jump to table bottom
Date Time Temperature
deg F
RH, % Wind Speed Wind Gust Wind Direction
09/29/22 06:00 47.0 46 16 37 SW - 241
09/29/22 05:00 45.7 64 12 24 SW - 237
09/29/22 04:00 47.2 58 24 40 SW - 234
09/29/22 03:00 48.8 52 23 40 SW - 234
09/29/22 02:00 49.4 48 18 31 SW - 234
09/29/22 01:00 49.4 49 19 27 SW - 236
09/29/22 00:00 50.0 45 20 31 SW - 229
09/28/22 23:00 50.6 44 19 31 SW - 229
09/28/22 22:00 50.9 41 15 25 SW - 229
09/28/22 21:00 52.2 35 13 22 SW - 226
09/28/22 20:00 53.3 31 14 20 SW - 222
09/28/22 19:00 53.9 30 11 17 SW - 218
09/28/22 18:00 54.2 31 4 10 SW - 225
09/28/22 17:00 57.4 28 7 15 W - 248
09/28/22 16:00 55.3 30 7 18 SW - 219
09/28/22 15:00 56.7 26 3 10 SW - 225
09/28/22 14:00 59.2 26 3 14 S - 177
09/28/22 13:00 58.0 24 8 16 SW - 247
09/28/22 12:00 56.8 27 9 16 SW - 247
09/28/22 11:00 55.1 30 10 18 W - 251
09/28/22 10:00 53.1 31 11 18 SW - 237
09/28/22 09:00 51.1 32 10 19 SW - 234
09/28/22 08:00 50.8 32 11 17 SW - 237
09/28/22 07:00 49.7 33 11 17 SW - 236
09/28/22 06:00 49.6 34 8 15 SW - 241
09/28/22 05:00 50.2 35 9 14 SW - 246
09/28/22 04:00 49.6 36 9 14 SW - 244
09/28/22 03:00 50.3 34 10 17 SW - 244
09/28/22 02:00 49.9 33 10 18 SW - 247
09/28/22 01:00 50.0 31 10 17 SW - 241
09/28/22 00:00 50.5 33 8 12 SW - 240
09/27/22 23:00 51.4 31 8 13 SW - 237
09/27/22 22:00 51.1 31 7 12 SW - 234
09/27/22 21:00 51.9 28 7 10 W - 248
09/27/22 20:00 52.3 28 8 14 W - 268
09/27/22 19:00 52.1 34 7 10 W - 279
09/27/22 18:00 53.4 35 4 11 N - 348
09/27/22 17:00 57.1 32 3 11 NW - 316
09/27/22 16:00 59.7 31 4 11 NW - 334
09/27/22 15:00 57.0 33 7 15 W - 250
09/27/22 14:00 57.0 26 6 14 W - 251
09/27/22 13:00 57.7 28 5 13 SW - 239
09/27/22 12:00 58.3 25 3 10 W - 251
09/27/22 11:00 53.8 26 5 11 W - 248
09/27/22 10:00 52.9 29 3 6 SW - 232
09/27/22 09:00 52.2 28 3 5 W - 282
09/27/22 08:00 52.0 27 4 10 SW - 236
09/27/22 07:00 49.6 29 11 16 W - 248
09/27/22 06:00 48.6 32 12 18 SW - 229
09/27/22 05:00 49.0 34 14 19 SW - 219